createdAt,value
2023-08-12T00:01:38.322Z,6.30
2023-08-12T00:04:08.411Z,5.60
2023-08-12T00:06:38.066Z,5.97
2023-08-12T00:09:07.836Z,5.63
2023-08-12T00:11:38.798Z,4.97
2023-08-12T00:14:08.557Z,5.45
2023-08-12T00:16:38.286Z,5.57
2023-08-12T00:19:08.060Z,5.47
2023-08-12T00:21:38.213Z,5.03
2023-08-12T00:24:08.328Z,4.95
2023-08-12T00:26:37.977Z,5.15
2023-08-12T00:29:07.663Z,5.32
2023-08-12T00:31:37.476Z,5.47
2023-08-12T00:34:07.246Z,5.47
2023-08-12T00:36:37.031Z,4.95
2023-08-12T00:39:06.841Z,5.35
2023-08-12T00:41:36.500Z,5.20
2023-08-12T00:44:06.425Z,4.97
2023-08-12T00:46:36.859Z,5.43
2023-08-12T00:49:06.714Z,4.68
2023-08-12T00:51:36.439Z,4.80
2023-08-12T00:54:09.286Z,4.55
2023-08-12T00:56:39.271Z,4.78
2023-08-12T00:59:10.233Z,5.13
2023-08-12T01:01:41.647Z,5.20
2023-08-12T01:04:11.440Z,4.93
2023-08-12T01:06:41.141Z,4.82
2023-08-12T01:09:12.158Z,4.25
2023-08-12T01:12:18.394Z,4.80
2023-08-12T01:15:11.292Z,4.43
2023-08-12T01:17:41.724Z,4.40
2023-08-12T01:20:12.212Z,4.47
2023-08-12T01:22:42.159Z,4.40
2023-08-12T01:25:12.085Z,4.70
2023-08-12T01:27:41.865Z,4.45
2023-08-12T01:30:13.516Z,4.47
2023-08-12T01:32:58.187Z,4.30
2023-08-12T01:35:33.280Z,4.30
2023-08-12T01:38:03.592Z,4.32
2023-08-12T01:40:33.259Z,4.25
2023-08-12T01:43:02.971Z,3.83
2023-08-12T01:45:37.702Z,4.47
2023-08-12T01:48:07.963Z,3.88
2023-08-12T01:50:37.709Z,4.20
2023-08-12T01:53:07.558Z,4.30
2023-08-12T01:55:37.318Z,4.35
2023-08-12T01:58:07.103Z,4.40
2023-08-12T02:00:36.761Z,4.25
2023-08-12T02:03:07.091Z,4.47
2023-08-12T02:05:37.051Z,4.07
2023-08-12T02:08:08.101Z,4.20
2023-08-12T02:10:38.504Z,3.90
2023-08-12T02:13:08.574Z,3.90
2023-08-12T02:15:38.293Z,4.40
2023-08-12T02:18:08.559Z,4.13
2023-08-12T02:20:38.339Z,3.53
2023-08-12T02:23:07.994Z,4.30
2023-08-12T02:25:38.183Z,4.05
2023-08-12T02:28:08.102Z,4.30
2023-08-12T02:30:37.925Z,4.60
2023-08-12T02:33:07.781Z,4.00
2023-08-12T02:35:37.546Z,4.18
2023-08-12T02:38:07.539Z,4.30
2023-08-12T02:40:37.179Z,4.00
2023-08-12T02:43:06.964Z,3.90
2023-08-12T02:45:36.686Z,4.40
2023-08-12T02:48:06.809Z,4.22
2023-08-12T02:50:36.517Z,4.07
2023-08-12T02:53:07.006Z,4.50
2023-08-12T02:55:36.744Z,3.88
2023-08-12T02:58:06.667Z,4.28
2023-08-12T03:00:36.372Z,4.18
2023-08-12T03:03:07.209Z,4.15
2023-08-12T03:05:37.662Z,4.30
2023-08-12T03:08:07.928Z,4.43
2023-08-12T03:10:37.960Z,4.30
2023-08-12T03:13:07.601Z,3.92
2023-08-12T03:15:37.903Z,4.35
2023-08-12T03:18:07.836Z,3.55
2023-08-12T03:20:37.523Z,3.97
2023-08-12T03:23:07.402Z,4.10
2023-08-12T03:25:37.089Z,4.03
2023-08-12T03:28:06.963Z,3.90
2023-08-12T03:30:36.632Z,4.10
2023-08-12T03:33:06.676Z,4.40
2023-08-12T03:35:36.494Z,3.70
2023-08-12T03:38:06.197Z,4.07
2023-08-12T03:40:35.837Z,4.40
2023-08-12T03:43:05.577Z,4.32
2023-08-12T03:45:35.358Z,3.80
2023-08-12T03:48:05.146Z,4.35
2023-08-12T03:50:37.761Z,4.10
2023-08-12T03:53:07.623Z,4.25
2023-08-12T03:55:37.371Z,4.25
2023-08-12T03:58:07.629Z,4.03
2023-08-12T04:00:37.294Z,4.00
2023-08-12T04:03:07.323Z,3.88
2023-08-12T04:05:36.994Z,4.10
2023-08-12T04:08:06.914Z,4.07
2023-08-12T04:10:36.630Z,4.20
2023-08-12T04:13:06.397Z,4.20
2023-08-12T04:15:36.059Z,4.35
2023-08-12T04:18:06.361Z,4.43
2023-08-12T04:20:36.119Z,4.18
2023-08-12T04:23:05.861Z,4.18
2023-08-12T04:25:35.551Z,4.00
2023-08-12T04:28:05.318Z,5.30
2023-08-12T04:30:35.213Z,4.55
2023-08-12T04:33:04.956Z,4.28
2023-08-12T04:35:35.282Z,4.20
2023-08-12T04:38:05.278Z,4.10
2023-08-12T04:40:35.370Z,4.18
2023-08-12T04:43:05.164Z,4.30
2023-08-12T04:45:34.962Z,4.13
2023-08-12T04:48:04.917Z,4.47
2023-08-12T04:50:37.280Z,4.70
2023-08-12T04:53:07.481Z,4.10
2023-08-12T04:55:38.053Z,4.30
2023-08-12T04:58:07.786Z,4.53
2023-08-12T05:00:37.908Z,4.38
2023-08-12T05:03:07.831Z,4.88
2023-08-12T05:05:37.548Z,4.80
2023-08-12T05:08:07.465Z,4.57
2023-08-12T05:10:37.288Z,4.30
2023-08-12T05:13:07.050Z,4.65
2023-08-12T05:15:39.195Z,4.07
2023-08-12T05:18:09.342Z,4.28
2023-08-12T05:20:39.015Z,4.50
2023-08-12T05:23:08.627Z,4.70
2023-08-12T05:25:38.245Z,4.25
2023-08-12T05:28:08.201Z,4.70
2023-08-12T05:30:38.399Z,4.78
2023-08-12T05:33:08.532Z,4.72
2023-08-12T05:35:38.802Z,4.28
2023-08-12T05:38:08.496Z,4.40
2023-08-12T05:40:38.288Z,4.60
2023-08-12T05:43:08.010Z,4.65
2023-08-12T05:45:37.770Z,4.70
2023-08-12T05:48:07.907Z,4.20
2023-08-12T05:50:37.639Z,4.70
2023-08-12T05:53:07.391Z,4.60
2023-08-12T05:55:40.140Z,4.32
2023-08-12T05:58:10.246Z,4.55
2023-08-12T06:00:39.956Z,4.28
2023-08-12T06:03:09.752Z,4.20
2023-08-12T06:05:39.501Z,4.45
2023-08-12T06:08:09.310Z,4.40
2023-08-12T06:10:40.729Z,4.70
2023-08-12T06:13:10.909Z,4.68
2023-08-12T06:15:40.590Z,4.47
2023-08-12T06:18:10.397Z,4.57
2023-08-12T06:20:40.186Z,4.97
2023-08-12T06:23:09.842Z,4.82
2023-08-12T06:25:39.511Z,4.90
2023-08-12T06:28:11.257Z,4.38
2023-08-12T06:30:40.967Z,5.13
2023-08-12T06:33:10.678Z,5.22
2023-08-12T06:35:42.448Z,4.40
2023-08-12T06:38:12.776Z,4.78
2023-08-12T06:40:42.436Z,4.90
2023-08-12T06:43:12.250Z,4.60
2023-08-12T06:45:41.970Z,4.50
2023-08-12T06:48:11.789Z,4.78
2023-08-12T06:50:41.547Z,4.70
2023-08-12T06:53:11.198Z,4.93
2023-08-12T06:55:48.350Z,5.35
2023-08-12T06:58:18.033Z,5.00
2023-08-12T07:00:47.741Z,5.13
2023-08-12T07:03:17.428Z,4.95
2023-08-12T07:05:47.172Z,5.38
2023-08-12T07:08:16.886Z,4.95
2023-08-12T07:10:46.711Z,5.07
2023-08-12T07:13:16.445Z,4.90
2023-08-12T07:15:46.410Z,5.28
2023-08-12T07:18:16.204Z,5.22
2023-08-12T07:20:45.931Z,5.45
2023-08-12T07:23:15.652Z,5.18
2023-08-12T07:25:45.383Z,5.18
2023-08-12T07:28:15.318Z,5.18
2023-08-12T07:30:45.123Z,5.22
2023-08-12T07:33:14.874Z,5.28
2023-08-12T07:35:44.626Z,5.20
2023-08-12T07:38:14.302Z,5.15
2023-08-12T07:40:44.026Z,5.43
2023-08-12T07:43:13.800Z,5.15
2023-08-12T07:45:43.836Z,5.22
2023-08-12T07:48:15.575Z,5.10
2023-08-12T07:50:45.698Z,5.38
2023-08-12T07:53:15.343Z,5.35
2023-08-12T07:55:45.929Z,5.40
2023-08-12T07:58:15.596Z,4.88
2023-08-12T08:00:45.276Z,5.60
2023-08-12T08:03:14.969Z,5.35
2023-08-12T08:05:44.965Z,5.78
2023-08-12T08:08:15.194Z,5.88
2023-08-12T08:10:44.886Z,5.32
2023-08-12T08:13:14.788Z,5.60
2023-08-12T08:15:44.462Z,5.88
2023-08-12T08:18:14.268Z,5.50
2023-08-12T08:20:46.380Z,6.10
2023-08-12T08:23:16.571Z,5.45
2023-08-12T08:25:46.312Z,5.50
2023-08-12T08:28:16.059Z,5.25
2023-08-12T08:30:45.835Z,5.18
2023-08-12T08:33:15.562Z,5.85
2023-08-12T08:35:45.295Z,5.68
2023-08-12T08:38:15.100Z,5.88
2023-08-12T08:40:45.046Z,5.80
2023-08-12T08:43:14.823Z,5.82
2023-08-12T08:45:44.480Z,5.82
2023-08-12T08:48:14.426Z,6.00
2023-08-12T08:50:44.971Z,5.57
2023-08-12T08:53:15.553Z,6.30
2023-08-12T08:55:45.386Z,5.82
2023-08-12T08:58:15.559Z,5.95
2023-08-12T09:00:51.345Z,6.32
2023-08-12T09:03:21.083Z,5.93
2023-08-12T09:05:50.744Z,6.35
2023-08-12T09:08:20.404Z,6.43
2023-08-12T09:10:50.187Z,5.72
2023-08-12T09:13:21.070Z,5.97
2023-08-12T09:15:50.813Z,5.88
2023-08-12T09:18:20.893Z,6.00
2023-08-12T09:20:50.651Z,6.28
2023-08-12T09:23:21.085Z,6.40
2023-08-12T09:25:51.638Z,6.50
2023-08-12T09:28:21.276Z,6.15
2023-08-12T09:30:55.064Z,6.18
2023-08-12T09:33:29.199Z,6.60
2023-08-12T09:35:59.668Z,5.97
2023-08-12T09:38:29.378Z,6.40
2023-08-12T09:40:59.521Z,6.32
2023-08-12T09:43:32.367Z,6.45
2023-08-12T09:46:02.726Z,6.43
2023-08-12T09:48:32.531Z,6.32
2023-08-12T09:51:02.186Z,6.55
2023-08-12T09:53:31.853Z,6.45
2023-08-12T09:56:03.304Z,6.65
2023-08-12T09:58:33.362Z,6.60
2023-08-12T10:01:04.344Z,6.60
2023-08-12T10:03:35.217Z,6.70
2023-08-12T10:06:05.731Z,6.50
2023-08-12T10:08:35.429Z,6.93
2023-08-12T10:11:13.076Z,6.75
2023-08-12T10:13:46.321Z,6.97
2023-08-12T10:16:16.519Z,6.75
2023-08-12T10:18:46.240Z,6.93
2023-08-12T10:21:16.137Z,6.82
2023-08-12T10:23:47.676Z,6.90
2023-08-12T10:26:17.688Z,6.13
2023-08-12T10:28:47.597Z,7.10
2023-08-12T10:31:17.395Z,6.70
2023-08-12T10:33:47.136Z,6.80
2023-08-12T10:36:16.763Z,7.07
2023-08-12T10:38:47.714Z,6.63
2023-08-12T10:41:27.662Z,6.80
2023-08-12T10:44:06.800Z,6.78
2023-08-12T10:46:38.554Z,6.60
2023-08-12T10:49:09.063Z,6.47
2023-08-12T10:51:48.904Z,6.47
2023-08-12T10:54:29.339Z,6.30
2023-08-12T10:57:10.775Z,6.60
2023-08-12T10:59:49.700Z,6.97
2023-08-12T11:02:28.856Z,6.28
2023-08-12T11:05:05.565Z,6.68
2023-08-12T11:07:45.633Z,5.82
2023-08-12T11:10:15.630Z,6.70
2023-08-12T11:12:50.932Z,7.15
2023-08-12T11:15:22.330Z,6.40
2023-08-12T11:17:52.127Z,6.45
2023-08-12T11:20:21.803Z,6.72
2023-08-12T11:22:51.480Z,6.68
2023-08-12T11:25:21.276Z,6.75
2023-08-12T11:27:51.412Z,6.40
2023-08-12T11:30:22.959Z,7.50
2023-08-12T11:32:56.393Z,6.82
2023-08-12T11:35:27.010Z,6.88
2023-08-12T11:38:00.778Z,6.82
2023-08-12T11:40:31.768Z,7.00
2023-08-12T11:43:01.435Z,6.70
2023-08-12T11:45:31.183Z,7.18
2023-08-12T11:48:00.935Z,6.80
2023-08-12T11:50:30.772Z,7.05
2023-08-12T11:53:01.208Z,5.93
2023-08-12T11:55:30.838Z,6.60
2023-08-12T11:58:01.698Z,6.35
2023-08-12T12:00:31.405Z,6.30
2023-08-12T12:03:01.176Z,6.43
2023-08-12T12:05:32.813Z,6.85
2023-08-12T12:08:07.853Z,6.38
2023-08-12T12:10:38.286Z,6.85
2023-08-12T12:13:08.899Z,6.43
2023-08-12T12:15:47.529Z,6.65
2023-08-12T12:18:17.375Z,6.30
2023-08-12T12:21:06.985Z,6.65
2023-08-12T12:23:38.419Z,6.68
2023-08-12T12:26:08.103Z,6.50
2023-08-12T12:28:37.732Z,6.43
2023-08-12T12:31:07.448Z,7.10
2023-08-12T12:33:37.233Z,6.95
2023-08-12T12:36:07.325Z,6.53
2023-08-12T12:38:36.961Z,7.07
2023-08-12T12:41:06.691Z,7.03
2023-08-12T12:43:36.407Z,6.50
2023-08-12T12:46:06.263Z,7.07
2023-08-12T12:48:36.009Z,7.13
2023-08-12T12:51:05.798Z,6.28
2023-08-12T12:53:35.519Z,7.22
2023-08-12T12:56:06.538Z,6.55
2023-08-12T12:58:39.987Z,6.85
2023-08-12T13:01:09.786Z,6.57
2023-08-12T13:03:39.628Z,6.28
2023-08-12T13:06:10.093Z,7.25
2023-08-12T13:08:39.885Z,6.72
2023-08-12T13:11:09.553Z,7.15
2023-08-12T13:13:39.266Z,7.00
2023-08-12T13:16:10.851Z,6.90
2023-08-12T13:18:40.555Z,7.38
2023-08-12T13:21:10.236Z,6.55
2023-08-12T13:23:42.742Z,7.18
2023-08-12T13:26:12.509Z,7.10
2023-08-12T13:28:42.231Z,7.07
2023-08-12T13:31:12.037Z,6.55
2023-08-12T13:33:41.811Z,6.72
2023-08-12T13:36:11.624Z,7.30
2023-08-12T13:38:41.253Z,6.88
2023-08-12T13:41:10.982Z,7.35
2023-08-12T13:43:40.759Z,6.03
2023-08-12T13:46:11.200Z,6.80
2023-08-12T13:48:40.903Z,6.68
2023-08-12T13:51:10.603Z,7.05
2023-08-12T13:53:40.728Z,6.97
2023-08-12T13:56:10.507Z,6.45
2023-08-12T13:58:40.410Z,6.65
2023-08-12T14:01:11.311Z,6.50
2023-08-12T14:03:41.470Z,6.00
2023-08-12T14:06:11.244Z,6.63
2023-08-12T14:08:40.970Z,7.30
2023-08-12T14:11:10.624Z,6.75
2023-08-12T14:13:40.278Z,6.75
2023-08-12T14:16:10.031Z,6.40
2023-08-12T14:18:39.686Z,6.90
2023-08-12T14:21:09.346Z,7.10
2023-08-12T14:23:39.020Z,6.78
2023-08-12T14:26:08.741Z,6.20
2023-08-12T14:28:38.445Z,6.60
2023-08-12T14:31:08.167Z,6.30
2023-08-12T14:33:39.948Z,6.57
2023-08-12T14:36:09.879Z,7.10
2023-08-12T14:38:39.597Z,6.53
2023-08-12T14:41:09.483Z,6.43
2023-08-12T14:43:39.667Z,7.13
2023-08-12T14:46:09.472Z,6.72
2023-08-12T14:48:39.177Z,6.18
2023-08-12T14:51:08.813Z,6.47
2023-08-12T14:53:38.520Z,6.45
2023-08-12T14:56:08.409Z,7.15
2023-08-12T14:58:38.547Z,6.50
2023-08-12T15:01:08.256Z,7.28
2023-08-12T15:03:38.150Z,6.40
2023-08-12T15:06:08.572Z,6.82
2023-08-12T15:08:38.264Z,6.55
2023-08-12T15:11:07.952Z,6.75
2023-08-12T15:13:37.641Z,6.72
2023-08-12T15:16:07.872Z,6.32
2023-08-12T15:18:37.748Z,6.32
2023-08-12T15:21:07.387Z,6.43
2023-08-12T15:23:37.869Z,6.53
2023-08-12T15:26:08.251Z,6.60
2023-08-12T15:28:37.934Z,6.72
2023-08-12T15:31:07.635Z,6.60
2023-08-12T15:33:37.360Z,6.80
2023-08-12T15:36:07.443Z,6.90
2023-08-12T15:38:37.198Z,6.93
2023-08-12T15:41:18.904Z,6.28
2023-08-12T15:43:48.598Z,6.68
2023-08-12T15:46:18.771Z,6.80
2023-08-12T15:48:48.537Z,6.47
2023-08-12T15:51:18.225Z,6.47
2023-08-12T15:53:47.932Z,6.38
2023-08-12T15:56:17.611Z,6.55
2023-08-12T15:58:47.298Z,6.40
2023-08-12T16:01:17.055Z,6.50
2023-08-12T16:03:47.197Z,6.80
2023-08-12T16:06:17.008Z,6.68
2023-08-12T16:08:56.896Z,6.47
2023-08-12T16:11:35.125Z,6.40
2023-08-12T16:14:04.771Z,7.05
2023-08-12T16:16:34.930Z,6.07
2023-08-12T16:19:04.893Z,6.53
2023-08-12T16:21:34.592Z,6.43
2023-08-12T16:24:04.677Z,6.60
2023-08-12T16:26:34.354Z,7.45
2023-08-12T16:29:04.273Z,6.50
2023-08-12T16:31:34.088Z,6.70
2023-08-12T16:34:03.841Z,6.50
2023-08-12T16:36:33.538Z,6.93
2023-08-12T16:39:03.257Z,7.10
2023-08-12T16:41:32.938Z,7.18
2023-08-12T16:44:02.676Z,6.70
2023-08-12T16:46:32.511Z,6.53
2023-08-12T16:49:02.211Z,6.90
2023-08-12T16:51:32.064Z,6.47
2023-08-12T16:54:01.719Z,6.57
2023-08-12T16:56:31.462Z,6.82
2023-08-12T16:59:01.489Z,6.40
2023-08-12T17:01:31.200Z,7.05
2023-08-12T17:04:02.226Z,7.10
2023-08-12T17:06:32.010Z,7.15
2023-08-12T17:09:01.673Z,6.88
2023-08-12T17:11:31.340Z,6.28
2023-08-12T17:14:01.060Z,7.43
2023-08-12T17:16:30.812Z,6.68
2023-08-12T17:19:00.464Z,6.90
2023-08-12T17:21:30.136Z,6.45
2023-08-12T17:23:59.880Z,6.78
2023-08-12T17:26:29.531Z,6.85
2023-08-12T17:28:59.198Z,7.20
2023-08-12T17:31:28.862Z,6.63
2023-08-12T17:33:58.550Z,6.95
2023-08-12T17:36:28.201Z,6.57
2023-08-12T17:38:57.904Z,6.90
2023-08-12T17:41:27.565Z,6.65
2023-08-12T17:43:57.260Z,6.82
2023-08-12T17:46:27.038Z,6.85
2023-08-12T17:48:56.923Z,7.35
2023-08-12T17:51:26.604Z,6.30
2023-08-12T17:53:56.323Z,6.55
2023-08-12T17:56:26.055Z,7.10
2023-08-12T17:58:55.769Z,6.90
2023-08-12T18:01:25.423Z,7.10
2023-08-12T18:03:57.364Z,7.15
2023-08-12T18:06:27.362Z,6.53
2023-08-12T18:08:57.094Z,7.65
2023-08-12T18:11:26.766Z,6.53
2023-08-12T18:13:56.467Z,6.85
2023-08-12T18:16:26.128Z,6.93
2023-08-12T18:18:55.849Z,7.05
2023-08-12T18:21:25.634Z,6.95
2023-08-12T18:23:55.297Z,7.10
2023-08-12T18:26:24.976Z,7.20
2023-08-12T18:28:54.657Z,6.50
2023-08-12T18:31:24.317Z,6.97
2023-08-12T18:33:54.028Z,7.30
2023-08-12T18:36:23.702Z,6.80
2023-08-12T18:38:53.369Z,6.90
2023-08-12T18:41:23.162Z,7.55
2023-08-12T18:43:52.867Z,6.80
2023-08-12T18:46:22.548Z,7.25
2023-08-12T18:48:52.258Z,6.85
2023-08-12T18:51:22.921Z,6.93
2023-08-12T18:53:52.582Z,7.07
2023-08-12T18:56:22.387Z,7.18
2023-08-12T18:58:54.880Z,7.22
2023-08-12T19:01:24.984Z,7.13
2023-08-12T19:03:55.150Z,7.30
2023-08-12T19:06:24.805Z,7.25
2023-08-12T19:08:54.507Z,7.47
2023-08-12T19:11:25.131Z,7.30
2023-08-12T19:13:54.847Z,7.32
2023-08-12T19:16:24.588Z,7.15
2023-08-12T19:18:54.298Z,8.10
2023-08-12T19:21:23.999Z,6.80
2023-08-12T19:23:53.754Z,7.47
2023-08-12T19:26:23.502Z,6.90
2023-08-12T19:28:53.693Z,6.82
2023-08-12T19:31:23.440Z,7.18
2023-08-12T19:33:53.226Z,8.40
2023-08-12T19:36:22.936Z,7.80
2023-08-12T19:38:52.564Z,7.80
2023-08-12T19:41:22.266Z,7.15
2023-08-12T19:43:51.882Z,6.88
2023-08-12T19:46:21.557Z,7.60
2023-08-12T19:48:51.236Z,7.68
2023-08-12T19:51:20.919Z,7.22
2023-08-12T19:53:50.683Z,7.70
2023-08-12T19:56:20.401Z,7.45
2023-08-12T19:58:50.067Z,7.70
2023-08-12T20:01:19.786Z,7.97
2023-08-12T20:03:49.589Z,7.40
2023-08-12T20:06:19.241Z,7.90
2023-08-12T20:08:48.945Z,7.38
2023-08-12T20:11:18.683Z,7.70
2023-08-12T20:13:48.336Z,7.88
2023-08-12T20:16:18.160Z,7.80
2023-08-12T20:18:47.891Z,8.05
2023-08-12T20:21:17.657Z,7.85
2023-08-12T20:23:47.361Z,8.13
2023-08-12T20:26:17.129Z,7.68
2023-08-12T20:28:46.816Z,8.00
2023-08-12T20:31:16.454Z,7.63
2023-08-12T20:33:46.123Z,7.10
2023-08-12T20:36:15.895Z,7.60
2023-08-12T20:38:45.737Z,8.07
2023-08-12T20:41:15.352Z,7.85
2023-08-12T20:43:45.085Z,8.05
2023-08-12T20:46:14.734Z,8.07
2023-08-12T20:48:44.406Z,7.80
2023-08-12T20:51:14.106Z,7.40
2023-08-12T20:53:43.844Z,7.82
2023-08-12T20:56:14.016Z,8.00
2023-08-12T20:58:43.724Z,8.13
2023-08-12T21:01:13.419Z,7.38
2023-08-12T21:03:43.131Z,7.60
2023-08-12T21:06:12.957Z,7.30
2023-08-12T21:08:42.710Z,8.10
2023-08-12T21:11:14.086Z,7.55
2023-08-12T21:13:43.811Z,7.28
2023-08-12T21:16:13.536Z,7.97
2023-08-12T21:18:43.348Z,7.82
2023-08-12T21:21:13.159Z,7.70
2023-08-12T21:23:42.857Z,7.80
2023-08-12T21:26:12.649Z,7.75
2023-08-12T21:28:45.138Z,7.57
2023-08-12T21:31:14.882Z,7.07
2023-08-12T21:33:44.564Z,7.75
2023-08-12T21:36:14.207Z,7.60
2023-08-12T21:38:43.894Z,8.15
2023-08-12T21:41:13.512Z,7.70
2023-08-12T21:43:43.245Z,7.45
2023-08-12T21:46:12.991Z,7.57
2023-08-12T21:48:42.951Z,8.25
2023-08-12T21:51:14.593Z,7.95
2023-08-12T21:53:47.103Z,7.65
2023-08-12T21:56:16.742Z,7.80
2023-08-12T21:58:46.720Z,7.57
2023-08-12T22:01:16.556Z,7.90
2023-08-12T22:03:46.285Z,7.43
2023-08-12T22:06:16.045Z,8.18
2023-08-12T22:08:45.698Z,7.20
2023-08-12T22:11:15.394Z,7.60
2023-08-12T22:13:45.089Z,7.57
2023-08-12T22:16:15.046Z,7.55
2023-08-12T22:18:44.748Z,7.78
2023-08-12T22:21:14.464Z,7.32
2023-08-12T22:23:44.161Z,8.10
2023-08-12T22:26:13.826Z,7.65
2023-08-12T22:28:43.493Z,8.30
2023-08-12T22:31:13.258Z,8.25
2023-08-12T22:33:42.953Z,7.22
2023-08-12T22:36:12.838Z,8.13
2023-08-12T22:38:42.584Z,7.80
2023-08-12T22:41:12.206Z,7.60
2023-08-12T22:43:41.922Z,7.60
2023-08-12T22:46:11.594Z,7.80
2023-08-12T22:48:41.930Z,7.72
2023-08-12T22:51:11.604Z,7.50
2023-08-12T22:53:41.303Z,7.63
2023-08-12T22:56:11.085Z,7.95
2023-08-12T22:58:40.811Z,7.57
2023-08-12T23:01:10.527Z,7.72
2023-08-12T23:03:40.283Z,7.55
2023-08-12T23:06:09.985Z,7.32
2023-08-12T23:08:39.770Z,7.43
2023-08-12T23:11:09.460Z,7.43
2023-08-12T23:13:39.131Z,7.55
2023-08-12T23:16:08.911Z,7.97
2023-08-12T23:18:38.703Z,7.93
2023-08-12T23:21:08.357Z,7.82
2023-08-12T23:23:38.035Z,8.00
2023-08-12T23:26:07.787Z,8.23
2023-08-12T23:28:37.454Z,8.18
2023-08-12T23:31:07.336Z,7.75
2023-08-12T23:33:37.067Z,7.80
2023-08-12T23:36:07.060Z,7.97
2023-08-12T23:38:36.734Z,7.63
2023-08-12T23:41:06.403Z,7.30
2023-08-12T23:43:36.135Z,7.40
2023-08-12T23:46:05.984Z,8.05
2023-08-12T23:48:35.792Z,8.13
2023-08-12T23:51:05.490Z,7.90
2023-08-12T23:53:35.177Z,8.10
2023-08-12T23:56:05.214Z,7.78
2023-08-12T23:58:34.855Z,7.80
